sensor_id;sensor_type;location;lat;lon;timestamp;pressure;altitude;pressure_sealevel;temperature;humidity
20942;BME280;10630;53.734;10.282;2022-10-16T00:01:23;100487.13;;;22.94;63.29
20942;BME280;10630;53.734;10.282;2022-10-16T00:03:51;100471.75;;;23.05;62.82
20942;BME280;10630;53.734;10.282;2022-10-16T00:06:19;100329.44;;;22.08;63.05
20942;BME280;10630;53.734;10.282;2022-10-16T00:08:48;100476.03;;;22.73;63.84
20942;BME280;10630;53.734;10.282;2022-10-16T00:11:26;100476.56;;;22.70;64.06
20942;BME280;10630;53.734;10.282;2022-10-16T00:13:58;100486.53;;;22.92;63.46
20942;BME280;10630;53.734;10.282;2022-10-16T00:16:27;100492.63;;;23.04;62.86
20942;BME280;10630;53.734;10.282;2022-10-16T00:18:54;100494.72;;;22.97;63.02
20942;BME280;10630;53.734;10.282;2022-10-16T00:21:24;100490.91;;;22.93;63.22
20942;BME280;10630;53.734;10.282;2022-10-16T00:23:58;100495.59;;;22.75;64.10
20942;BME280;10630;53.734;10.282;2022-10-16T00:26:27;100498.03;;;22.77;62.98
20942;BME280;10630;53.734;10.282;2022-10-16T00:28:56;100501.78;;;22.32;65.66
20942;BME280;10630;53.734;10.282;2022-10-16T00:31:24;100503.31;;;22.05;68.03
20942;BME280;10630;53.734;10.282;2022-10-16T00:33:52;100439.63;;;22.03;65.74
20942;BME280;10630;53.734;10.282;2022-10-16T00:36:22;100505.56;;;22.30;65.68
20942;BME280;10630;53.734;10.282;2022-10-16T00:38:53;100485.94;;;22.63;64.49
20942;BME280;10630;53.734;10.282;2022-10-16T00:41:23;100507.09;;;22.04;67.92
20942;BME280;10630;53.734;10.282;2022-10-16T00:43:54;100407.97;;;21.86;64.81
20942;BME280;10630;53.734;10.282;2022-10-16T00:46:25;100377.31;;;21.63;64.83
20942;BME280;10630;53.734;10.282;2022-10-16T00:49:04;100503.91;;;22.47;64.22
20942;BME280;10630;53.734;10.282;2022-10-16T00:51:52;100526.06;;;22.21;66.27
20942;BME280;10630;53.734;10.282;2022-10-16T00:54:26;100516.50;;;22.19;65.54
20942;BME280;10630;53.734;10.282;2022-10-16T00:56:57;100522.47;;;21.81;67.49
20942;BME280;10630;53.734;10.282;2022-10-16T00:59:27;100428.72;;;21.80;65.68
20942;BME280;10630;53.734;10.282;2022-10-16T01:01:55;100524.00;;;22.11;65.54
20942;BME280;10630;53.734;10.282;2022-10-16T01:04:24;100529.09;;;22.08;66.36
20942;BME280;10630;53.734;10.282;2022-10-16T01:09:42;100534.34;;;22.14;65.91
20942;BME280;10630;53.734;10.282;2022-10-16T01:12:19;100409.78;;;21.12;65.12
20942;BME280;10630;53.734;10.282;2022-10-16T01:14:48;100520.94;;;22.42;64.63
20942;BME280;10630;53.734;10.282;2022-10-16T01:17:30;100511.59;;;22.16;65.53
20942;BME280;10630;53.734;10.282;2022-10-16T01:22:38;100465.38;;;22.05;63.81
20942;BME280;10630;53.734;10.282;2022-10-16T01:25:17;100541.13;;;22.34;63.33
20942;BME280;10630;53.734;10.282;2022-10-16T01:27:47;100524.63;;;22.19;63.78
20942;BME280;10630;53.734;10.282;2022-10-16T01:30:24;100531.88;;;21.96;65.03
20942;BME280;10630;53.734;10.282;2022-10-16T01:33:00;100538.97;;;22.14;64.01
20942;BME280;10630;53.734;10.282;2022-10-16T01:35:34;100534.72;;;21.55;65.01
20942;BME280;10630;53.734;10.282;2022-10-16T01:38:07;100536.19;;;21.00;69.87
20942;BME280;10630;53.734;10.282;2022-10-16T01:40:39;100536.78;;;21.48;67.00
20942;BME280;10630;53.734;10.282;2022-10-16T01:43:12;100490.50;;;21.49;65.51
20942;BME280;10630;53.734;10.282;2022-10-16T01:45:44;100550.41;;;21.53;65.65
20942;BME280;10630;53.734;10.282;2022-10-16T01:48:16;100543.16;;;21.42;66.35
20942;BME280;10630;53.734;10.282;2022-10-16T01:50:52;100542.41;;;21.92;63.65
20942;BME280;10630;53.734;10.282;2022-10-16T01:53:22;100541.19;;;21.83;64.21
20942;BME280;10630;53.734;10.282;2022-10-16T01:55:52;100508.28;;;21.28;64.27
20942;BME280;10630;53.734;10.282;2022-10-16T01:58:22;100524.88;;;21.32;65.06
20942;BME280;10630;53.734;10.282;2022-10-16T02:00:52;100542.06;;;20.97;66.70
20942;BME280;10630;53.734;10.282;2022-10-16T02:03:21;100529.22;;;21.33;66.17
20942;BME280;10630;53.734;10.282;2022-10-16T02:08:14;100539.13;;;21.90;62.51
20942;BME280;10630;53.734;10.282;2022-10-16T02:10:43;100542.13;;;21.14;65.34
20942;BME280;10630;53.734;10.282;2022-10-16T02:13:33;100545.91;;;21.59;64.32
20942;BME280;10630;53.734;10.282;2022-10-16T02:16:02;100547.56;;;21.60;64.25
20942;BME280;10630;53.734;10.282;2022-10-16T02:18:29;100437.34;;;21.09;62.77
20942;BME280;10630;53.734;10.282;2022-10-16T02:21:17;100542.41;;;21.58;63.33
20942;BME280;10630;53.734;10.282;2022-10-16T02:23:54;100532.94;;;21.15;65.86
20942;BME280;10630;53.734;10.282;2022-10-16T02:26:41;100531.53;;;21.12;65.10
20942;BME280;10630;53.734;10.282;2022-10-16T02:29:14;100428.81;;;20.60;64.92
20942;BME280;10630;53.734;10.282;2022-10-16T02:31:45;100541.41;;;21.64;62.75
20942;BME280;10630;53.734;10.282;2022-10-16T02:34:13;100530.56;;;21.47;62.60
20942;BME280;10630;53.734;10.282;2022-10-16T02:36:41;100539.91;;;21.57;63.89
20942;BME280;10630;53.734;10.282;2022-10-16T02:39:10;100547.44;;;21.38;64.78
20942;BME280;10630;53.734;10.282;2022-10-16T02:41:38;100543.88;;;21.66;63.06
20942;BME280;10630;53.734;10.282;2022-10-16T02:44:04;100543.13;;;21.88;61.59
20942;BME280;10630;53.734;10.282;2022-10-16T02:46:31;100445.00;;;21.00;62.17
20942;BME280;10630;53.734;10.282;2022-10-16T02:48:58;100530.16;;;21.56;62.18
20942;BME280;10630;53.734;10.282;2022-10-16T02:51:25;100516.63;;;21.27;62.04
20942;BME280;10630;53.734;10.282;2022-10-16T02:53:52;100545.91;;;21.59;62.17
20942;BME280;10630;53.734;10.282;2022-10-16T02:56:18;100553.47;;;21.28;62.83
20942;BME280;10630;53.734;10.282;2022-10-16T02:58:50;100550.81;;;21.45;63.18
20942;BME280;10630;53.734;10.282;2022-10-16T03:01:16;100550.69;;;21.40;62.62
20942;BME280;10630;53.734;10.282;2022-10-16T03:03:43;100561.88;;;21.43;62.40
20942;BME280;10630;53.734;10.282;2022-10-16T03:06:10;100557.94;;;21.34;62.02
20942;BME280;10630;53.734;10.282;2022-10-16T03:08:37;100529.16;;;21.45;62.08
20942;BME280;10630;53.734;10.282;2022-10-16T03:11:04;100548.22;;;21.21;62.92
20942;BME280;10630;53.734;10.282;2022-10-16T03:13:31;100318.97;;;19.84;62.02
20942;BME280;10630;53.734;10.282;2022-10-16T03:15:57;100495.31;;;20.84;63.04
20942;BME280;10630;53.734;10.282;2022-10-16T03:18:24;100545.34;;;20.99;63.47
20942;BME280;10630;53.734;10.282;2022-10-16T03:20:51;100511.78;;;20.71;63.95
20942;BME280;10630;53.734;10.282;2022-10-16T03:23:17;100538.28;;;20.98;62.79
20942;BME280;10630;53.734;10.282;2022-10-16T03:25:44;100541.16;;;21.20;61.69
20942;BME280;10630;53.734;10.282;2022-10-16T03:28:13;100547.19;;;21.10;62.94
20942;BME280;10630;53.734;10.282;2022-10-16T03:30:40;100546.66;;;21.25;61.93
20942;BME280;10630;53.734;10.282;2022-10-16T03:33:06;100540.63;;;21.06;62.55
20942;BME280;10630;53.734;10.282;2022-10-16T03:35:33;100544.69;;;20.68;63.93
20942;BME280;10630;53.734;10.282;2022-10-16T03:38:00;100537.34;;;20.92;63.57
20942;BME280;10630;53.734;10.282;2022-10-16T03:40:27;100511.66;;;20.78;61.97
20942;BME280;10630;53.734;10.282;2022-10-16T03:42:54;100536.47;;;20.86;63.10
20942;BME280;10630;53.734;10.282;2022-10-16T03:45:24;100543.69;;;20.45;63.69
20942;BME280;10630;53.734;10.282;2022-10-16T03:47:50;100546.03;;;20.42;64.64
20942;BME280;10630;53.734;10.282;2022-10-16T03:50:17;100558.94;;;20.28;64.47
20942;BME280;10630;53.734;10.282;2022-10-16T03:52:44;100519.25;;;20.28;64.37
20942;BME280;10630;53.734;10.282;2022-10-16T03:55:10;100553.44;;;19.99;67.16
20942;BME280;10630;53.734;10.282;2022-10-16T03:57:37;100565.66;;;20.37;64.77
20942;BME280;10630;53.734;10.282;2022-10-16T04:00:04;100467.72;;;19.28;67.78
20942;BME280;10630;53.734;10.282;2022-10-16T04:02:33;100563.09;;;20.30;65.63
20942;BME280;10630;53.734;10.282;2022-10-16T04:05:01;100560.69;;;20.58;63.71
20942;BME280;10630;53.734;10.282;2022-10-16T04:07:28;100547.56;;;20.26;65.14
20942;BME280;10630;53.734;10.282;2022-10-16T04:09:55;100567.47;;;19.77;67.72
20942;BME280;10630;53.734;10.282;2022-10-16T04:12:23;100575.81;;;19.45;69.24
20942;BME280;10630;53.734;10.282;2022-10-16T04:14:50;100551.13;;;19.72;68.48
20942;BME280;10630;53.734;10.282;2022-10-16T04:17:16;100539.69;;;20.24;65.55
20942;BME280;10630;53.734;10.282;2022-10-16T04:19:43;100593.84;;;20.53;63.49
20942;BME280;10630;53.734;10.282;2022-10-16T04:22:09;100589.59;;;19.98;65.77
20942;BME280;10630;53.734;10.282;2022-10-16T04:24:36;100368.34;;;19.13;64.14
20942;BME280;10630;53.734;10.282;2022-10-16T04:27:03;100607.22;;;20.60;62.85
20942;BME280;10630;53.734;10.282;2022-10-16T04:29:30;100570.81;;;20.50;62.95
20942;BME280;10630;53.734;10.282;2022-10-16T04:31:57;100610.78;;;20.60;62.79
20942;BME280;10630;53.734;10.282;2022-10-16T04:34:24;100587.72;;;19.98;64.14
20942;BME280;10630;53.734;10.282;2022-10-16T04:36:50;100604.88;;;20.39;63.31
20942;BME280;10630;53.734;10.282;2022-10-16T04:39:17;100610.78;;;20.48;63.21
20942;BME280;10630;53.734;10.282;2022-10-16T04:41:44;100604.66;;;20.77;62.32
20942;BME280;10630;53.734;10.282;2022-10-16T04:44:10;100605.38;;;20.84;62.15
20942;BME280;10630;53.734;10.282;2022-10-16T04:46:37;100592.19;;;20.64;61.85
20942;BME280;10630;53.734;10.282;2022-10-16T04:49:04;100560.13;;;20.32;61.82
20942;BME280;10630;53.734;10.282;2022-10-16T04:51:31;100600.56;;;20.27;63.88
20942;BME280;10630;53.734;10.282;2022-10-16T04:53:58;100609.72;;;19.41;68.61
20942;BME280;10630;53.734;10.282;2022-10-16T04:56:25;100601.38;;;19.73;66.85
20942;BME280;10630;53.734;10.282;2022-10-16T04:58:52;100599.44;;;20.04;64.54
20942;BME280;10630;53.734;10.282;2022-10-16T05:01:19;100624.34;;;19.94;66.09
20942;BME280;10630;53.734;10.282;2022-10-16T05:03:45;100622.66;;;20.47;63.67
20942;BME280;10630;53.734;10.282;2022-10-16T05:06:12;100601.63;;;20.26;63.54
20942;BME280;10630;53.734;10.282;2022-10-16T05:08:38;100629.22;;;20.63;63.00
20942;BME280;10630;53.734;10.282;2022-10-16T05:11:05;100615.84;;;20.33;63.10
20942;BME280;10630;53.734;10.282;2022-10-16T05:13:32;100632.06;;;20.45;63.24
20942;BME280;10630;53.734;10.282;2022-10-16T05:15:59;100632.47;;;20.18;63.35
20942;BME280;10630;53.734;10.282;2022-10-16T05:18:25;100635.91;;;20.37;63.58
20942;BME280;10630;53.734;10.282;2022-10-16T05:20:52;100629.34;;;20.45;62.49
20942;BME280;10630;53.734;10.282;2022-10-16T05:23:19;100617.31;;;20.05;63.49
20942;BME280;10630;53.734;10.282;2022-10-16T05:25:54;100627.88;;;19.95;64.06
20942;BME280;10630;53.734;10.282;2022-10-16T05:28:21;100651.91;;;19.35;65.45
20942;BME280;10630;53.734;10.282;2022-10-16T05:30:48;100647.72;;;19.70;67.92
20942;BME280;10630;53.734;10.282;2022-10-16T05:33:14;100625.91;;;19.83;65.42
20942;BME280;10630;53.734;10.282;2022-10-16T05:35:41;100656.31;;;20.09;64.33
20942;BME280;10630;53.734;10.282;2022-10-16T05:38:08;100647.59;;;19.65;65.89
20942;BME280;10630;53.734;10.282;2022-10-16T05:40:35;100654.78;;;20.13;64.74
20942;BME280;10630;53.734;10.282;2022-10-16T05:43:02;100662.34;;;19.13;68.53
20942;BME280;10630;53.734;10.282;2022-10-16T05:45:29;100657.69;;;19.20;72.18
20942;BME280;10630;53.734;10.282;2022-10-16T05:47:56;100659.38;;;19.52;68.68
20942;BME280;10630;53.734;10.282;2022-10-16T05:50:23;100634.72;;;19.48;66.44
20942;BME280;10630;53.734;10.282;2022-10-16T05:52:50;100624.75;;;19.18;68.35
20942;BME280;10630;53.734;10.282;2022-10-16T05:55:16;100660.91;;;19.29;69.14
20942;BME280;10630;53.734;10.282;2022-10-16T05:57:43;100665.66;;;19.64;68.36
20942;BME280;10630;53.734;10.282;2022-10-16T06:00:10;100658.44;;;20.07;65.09
20942;BME280;10630;53.734;10.282;2022-10-16T06:02:37;100673.50;;;19.35;69.25
20942;BME280;10630;53.734;10.282;2022-10-16T06:05:04;100663.59;;;19.78;67.77
20942;BME280;10630;53.734;10.282;2022-10-16T06:07:34;100674.78;;;19.33;69.32
20942;BME280;10630;53.734;10.282;2022-10-16T06:10:03;100642.22;;;19.46;68.22
20942;BME280;10630;53.734;10.282;2022-10-16T06:12:30;100673.34;;;19.79;67.72
20942;BME280;10630;53.734;10.282;2022-10-16T06:14:57;100641.53;;;19.81;66.01
20942;BME280;10630;53.734;10.282;2022-10-16T06:17:24;100613.78;;;19.92;64.68
20942;BME280;10630;53.734;10.282;2022-10-16T06:19:51;100664.09;;;20.17;64.48
20942;BME280;10630;53.734;10.282;2022-10-16T06:22:18;100680.84;;;19.77;67.41
20942;BME280;10630;53.734;10.282;2022-10-16T06:24:45;100672.69;;;19.65;68.26
20942;BME280;10630;53.734;10.282;2022-10-16T06:27:12;100673.50;;;19.84;67.65
20942;BME280;10630;53.734;10.282;2022-10-16T06:29:39;100658.94;;;20.39;64.70
20942;BME280;10630;53.734;10.282;2022-10-16T06:32:06;100673.88;;;19.88;65.61
20942;BME280;10630;53.734;10.282;2022-10-16T06:34:32;100673.94;;;20.12;67.23
20942;BME280;10630;53.734;10.282;2022-10-16T06:37:00;100684.22;;;19.42;67.66
20942;BME280;10630;53.734;10.282;2022-10-16T06:39:26;100676.06;;;19.79;68.48
20942;BME280;10630;53.734;10.282;2022-10-16T06:41:53;100690.09;;;20.30;66.52
20942;BME280;10630;53.734;10.282;2022-10-16T06:44:20;100669.59;;;19.80;64.98
20942;BME280;10630;53.734;10.282;2022-10-16T06:46:47;100696.09;;;20.68;64.47
20942;BME280;10630;53.734;10.282;2022-10-16T06:49:14;100698.97;;;20.19;65.03
20942;BME280;10630;53.734;10.282;2022-10-16T06:51:47;100676.47;;;19.95;67.53
20942;BME280;10630;53.734;10.282;2022-10-16T06:54:15;100636.94;;;19.02;69.02
20942;BME280;10630;53.734;10.282;2022-10-16T06:56:42;100718.38;;;19.29;72.16
20942;BME280;10630;53.734;10.282;2022-10-16T06:59:08;100697.97;;;19.52;69.65
20942;BME280;10630;53.734;10.282;2022-10-16T07:01:35;100718.41;;;19.78;70.51
20942;BME280;10630;53.734;10.282;2022-10-16T07:04:02;100719.81;;;20.30;68.14
20942;BME280;10630;53.734;10.282;2022-10-16T07:06:32;100712.16;;;20.27;64.24
20942;BME280;10630;53.734;10.282;2022-10-16T07:09:02;100710.94;;;20.23;66.07
20942;BME280;10630;53.734;10.282;2022-10-16T07:11:29;100727.50;;;21.16;63.35
20942;BME280;10630;53.734;10.282;2022-10-16T07:13:56;100740.09;;;20.87;63.16
20942;BME280;10630;53.734;10.282;2022-10-16T07:16:27;100713.81;;;20.28;66.24
20942;BME280;10630;53.734;10.282;2022-10-16T07:18:56;100695.63;;;20.71;66.30
20942;BME280;10630;53.734;10.282;2022-10-16T07:21:31;100718.06;;;21.31;63.56
20942;BME280;10630;53.734;10.282;2022-10-16T07:24:03;100738.94;;;20.95;63.32
20942;BME280;10630;53.734;10.282;2022-10-16T07:26:32;100617.78;;;20.02;64.59
20942;BME280;10630;53.734;10.282;2022-10-16T07:29:00;100756.03;;;20.11;69.26
20942;BME280;10630;53.734;10.282;2022-10-16T07:31:27;100753.69;;;20.56;68.43
20942;BME280;10630;53.734;10.282;2022-10-16T07:33:54;100760.19;;;21.27;64.86
20942;BME280;10630;53.734;10.282;2022-10-16T07:36:21;100739.72;;;21.31;65.21
20942;BME280;10630;53.734;10.282;2022-10-16T07:38:48;100743.78;;;21.98;62.05
20942;BME280;10630;53.734;10.282;2022-10-16T07:41:18;100746.03;;;22.18;60.70
20942;BME280;10630;53.734;10.282;2022-10-16T07:43:49;100775.00;;;20.65;67.18
20942;BME280;10630;53.734;10.282;2022-10-16T07:46:17;100713.91;;;21.64;64.39
20942;BME280;10630;53.734;10.282;2022-10-16T07:48:44;100615.44;;;21.70;59.38
20942;BME280;10630;53.734;10.282;2022-10-16T07:51:19;100765.06;;;21.77;64.01
20942;BME280;10630;53.734;10.282;2022-10-16T07:53:46;100781.47;;;21.35;64.58
20942;BME280;10630;53.734;10.282;2022-10-16T07:56:14;100765.25;;;21.35;64.70
20942;BME280;10630;53.734;10.282;2022-10-16T07:58:41;100743.34;;;21.48;64.67
20942;BME280;10630;53.734;10.282;2022-10-16T08:01:13;100764.47;;;21.75;62.93
20942;BME280;10630;53.734;10.282;2022-10-16T08:03:45;100760.09;;;20.98;66.05
20942;BME280;10630;53.734;10.282;2022-10-16T08:06:12;100784.66;;;21.56;64.36
20942;BME280;10630;53.734;10.282;2022-10-16T08:08:39;100787.34;;;21.68;66.23
20942;BME280;10630;53.734;10.282;2022-10-16T08:11:06;100785.09;;;22.05;63.10
20942;BME280;10630;53.734;10.282;2022-10-16T08:13:32;100770.53;;;21.42;63.31
20942;BME280;10630;53.734;10.282;2022-10-16T08:15:59;100804.66;;;21.43;65.89
20942;BME280;10630;53.734;10.282;2022-10-16T08:18:26;100800.38;;;22.11;63.78
20942;BME280;10630;53.734;10.282;2022-10-16T08:20:56;100774.53;;;22.50;61.58
20942;BME280;10630;53.734;10.282;2022-10-16T08:23:24;100803.00;;;22.06;63.21
20942;BME280;10630;53.734;10.282;2022-10-16T08:25:56;100801.22;;;22.12;64.35
20942;BME280;10630;53.734;10.282;2022-10-16T08:28:27;100501.69;;;19.59;66.20
20942;BME280;10630;53.734;10.282;2022-10-16T08:30:54;100793.47;;;22.79;62.22
20942;BME280;10630;53.734;10.282;2022-10-16T08:33:23;100799.44;;;23.15;60.50
20942;BME280;10630;53.734;10.282;2022-10-16T08:35:53;100805.13;;;23.13;59.61
20942;BME280;10630;53.734;10.282;2022-10-16T08:38:20;100804.31;;;23.52;57.81
20942;BME280;10630;53.734;10.282;2022-10-16T08:40:47;100803.78;;;22.48;61.42
20942;BME280;10630;53.734;10.282;2022-10-16T08:48:51;100807.91;;;22.84;60.60
20942;BME280;10630;53.734;10.282;2022-10-16T08:53:55;100699.91;;;23.43;57.58
20942;BME280;10630;53.734;10.282;2022-10-16T08:56:23;100732.22;;;22.66;59.82
20942;BME280;10630;53.734;10.282;2022-10-16T08:58:51;100807.13;;;24.01;56.62
20942;BME280;10630;53.734;10.282;2022-10-16T09:01:28;100805.59;;;23.89;56.13
20942;BME280;10630;53.734;10.282;2022-10-16T09:06:56;100814.16;;;24.52;54.43
20942;BME280;10630;53.734;10.282;2022-10-16T09:20:28;100731.22;;;24.22;53.98
20942;BME280;10630;53.734;10.282;2022-10-16T09:25:38;100830.72;;;24.78;52.40
20942;BME280;10630;53.734;10.282;2022-10-16T09:28:07;100837.56;;;24.53;53.68
20942;BME280;10630;53.734;10.282;2022-10-16T09:30:35;100829.66;;;24.52;52.54
20942;BME280;10630;53.734;10.282;2022-10-16T09:33:03;100767.66;;;24.26;52.10
20942;BME280;10630;53.734;10.282;2022-10-16T09:35:45;100840.84;;;24.06;53.50
20942;BME280;10630;53.734;10.282;2022-10-16T09:40:51;100839.41;;;24.47;52.32
20942;BME280;10630;53.734;10.282;2022-10-16T09:46:06;100841.66;;;24.83;51.37
20942;BME280;10630;53.734;10.282;2022-10-16T09:48:39;100782.84;;;24.77;50.25
20942;BME280;10630;53.734;10.282;2022-10-16T09:51:32;100838.59;;;26.08;48.91
20942;BME280;10630;53.734;10.282;2022-10-16T09:56:48;100843.91;;;25.77;49.07
20942;BME280;10630;53.734;10.282;2022-10-16T09:59:22;100844.25;;;26.06;49.09
20942;BME280;10630;53.734;10.282;2022-10-16T10:01:54;100860.00;;;25.36;50.33
20942;BME280;10630;53.734;10.282;2022-10-16T10:04:23;100656.16;;;24.21;50.01
20942;BME280;10630;53.734;10.282;2022-10-16T10:06:57;100863.69;;;26.20;47.71
20942;BME280;10630;53.734;10.282;2022-10-16T10:12:03;100818.63;;;26.02;46.71
20942;BME280;10630;53.734;10.282;2022-10-16T10:14:37;100690.00;;;24.36;47.75
20942;BME280;10630;53.734;10.282;2022-10-16T10:19:53;100792.69;;;25.31;47.98
20942;BME280;10630;53.734;10.282;2022-10-16T10:38:46;100899.94;;;28.02;44.15
20942;BME280;10630;53.734;10.282;2022-10-16T10:52:19;100914.94;;;26.08;46.52
20942;BME280;10630;53.734;10.282;2022-10-16T11:00:54;100904.25;;;26.85;45.95
20942;BME280;10630;53.734;10.282;2022-10-16T11:06:08;100828.00;;;25.53;46.33
20942;BME280;10630;53.734;10.282;2022-10-16T11:12:03;100907.69;;;25.86;46.88
20942;BME280;10630;53.734;10.282;2022-10-16T11:14:42;100792.41;;;25.86;46.55
20942;BME280;10630;53.734;10.282;2022-10-16T11:17:23;100834.31;;;26.95;44.70
20942;BME280;10630;53.734;10.282;2022-10-16T11:19:59;100914.06;;;27.02;44.32
20942;BME280;10630;53.734;10.282;2022-10-16T11:22:38;100741.50;;;25.28;44.93
20942;BME280;10630;53.734;10.282;2022-10-16T11:30:40;100815.19;;;27.21;43.60
20942;BME280;10630;53.734;10.282;2022-10-16T11:33:25;100926.63;;;27.29;44.42
20942;BME280;10630;53.734;10.282;2022-10-16T11:36:32;100929.34;;;27.34;43.48
20942;BME280;10630;53.734;10.282;2022-10-16T11:39:20;100936.25;;;26.21;45.63
20942;BME280;10630;53.734;10.282;2022-10-16T11:44:45;100840.63;;;25.32;45.35
20942;BME280;10630;53.734;10.282;2022-10-16T11:47:30;100947.03;;;26.75;44.50
20942;BME280;10630;53.734;10.282;2022-10-16T11:50:53;100960.44;;;26.86;43.61
20942;BME280;10630;53.734;10.282;2022-10-16T11:56:06;100955.75;;;26.03;45.07
20942;BME280;10630;53.734;10.282;2022-10-16T12:01:45;100974.25;;;25.90;45.71
20942;BME280;10630;53.734;10.282;2022-10-16T12:04:19;100977.16;;;25.41;46.54
20942;BME280;10630;53.734;10.282;2022-10-16T12:06:55;100976.22;;;25.30;46.28
20942;BME280;10630;53.734;10.282;2022-10-16T12:09:30;100973.28;;;25.32;47.40
20942;BME280;10630;53.734;10.282;2022-10-16T12:11:58;100958.91;;;26.27;45.47
20942;BME280;10630;53.734;10.282;2022-10-16T12:14:39;100964.03;;;27.39;44.34
20942;BME280;10630;53.734;10.282;2022-10-16T12:17:34;100968.06;;;26.69;44.06
20942;BME280;10630;53.734;10.282;2022-10-16T12:20:32;100956.25;;;26.48;43.96
20942;BME280;10630;53.734;10.282;2022-10-16T12:23:19;100992.22;;;25.49;44.81
20942;BME280;10630;53.734;10.282;2022-10-16T12:25:55;100999.84;;;25.89;44.45
20942;BME280;10630;53.734;10.282;2022-10-16T12:28:26;100850.59;;;26.12;43.43
20942;BME280;10630;53.734;10.282;2022-10-16T12:31:05;100981.38;;;26.55;42.22
20942;BME280;10630;53.734;10.282;2022-10-16T12:33:39;101013.09;;;26.08;43.32
20942;BME280;10630;53.734;10.282;2022-10-16T12:36:28;101017.94;;;25.63;44.33
20942;BME280;10630;53.734;10.282;2022-10-16T12:38:55;101002.34;;;25.96;44.22
20942;BME280;10630;53.734;10.282;2022-10-16T12:41:32;100905.72;;;25.34;43.53
20942;BME280;10630;53.734;10.282;2022-10-16T12:43:59;101025.97;;;26.18;42.90
20942;BME280;10630;53.734;10.282;2022-10-16T12:51:49;101031.09;;;25.71;43.93
20942;BME280;10630;53.734;10.282;2022-10-16T12:54:18;101041.09;;;25.06;44.88
20942;BME280;10630;53.734;10.282;2022-10-16T12:57:38;100944.22;;;24.55;44.51
20942;BME280;10630;53.734;10.282;2022-10-16T13:08:42;100876.56;;;24.91;44.58
20942;BME280;10630;53.734;10.282;2022-10-16T13:17:02;101064.09;;;26.66;42.12
20942;BME280;10630;53.734;10.282;2022-10-16T13:22:32;101072.44;;;26.38;41.87
20942;BME280;10630;53.734;10.282;2022-10-16T13:25:45;100993.66;;;26.52;40.63
20942;BME280;10630;53.734;10.282;2022-10-16T13:28:01;101079.53;;;26.98;40.59
20942;BME280;10630;53.734;10.282;2022-10-16T13:30:43;101080.81;;;25.89;42.25
20942;BME280;10630;53.734;10.282;2022-10-16T13:33:19;101085.78;;;26.40;42.07
20942;BME280;10630;53.734;10.282;2022-10-16T13:35:52;101106.63;;;26.09;42.03
20942;BME280;10630;53.734;10.282;2022-10-16T13:38:25;100989.09;;;25.07;42.18
20942;BME280;10630;53.734;10.282;2022-10-16T13:41:04;101080.88;;;25.34;43.08
20942;BME280;10630;53.734;10.282;2022-10-16T13:46:12;101098.66;;;26.07;41.98
20942;BME280;10630;53.734;10.282;2022-10-16T13:48:39;101104.63;;;26.04;43.07
20942;BME280;10630;53.734;10.282;2022-10-16T13:51:15;101111.66;;;26.27;42.98
20942;BME280;10630;53.734;10.282;2022-10-16T13:53:43;101116.75;;;25.81;42.85
20942;BME280;10630;53.734;10.282;2022-10-16T13:56:18;101125.00;;;25.09;44.80
20942;BME280;10630;53.734;10.282;2022-10-16T13:58:46;100906.72;;;24.13;44.22
20942;BME280;10630;53.734;10.282;2022-10-16T14:01:25;101087.38;;;24.84;44.39
20942;BME280;10630;53.734;10.282;2022-10-16T14:04:06;101080.84;;;25.07;43.72
20942;BME280;10630;53.734;10.282;2022-10-16T14:06:35;101123.06;;;25.32;44.43
20942;BME280;10630;53.734;10.282;2022-10-16T14:09:21;101062.69;;;24.90;44.56
20942;BME280;10630;53.734;10.282;2022-10-16T14:12:08;101115.56;;;25.22;43.97
20942;BME280;10630;53.734;10.282;2022-10-16T14:14:45;101093.41;;;25.08;43.97
20942;BME280;10630;53.734;10.282;2022-10-16T14:19:48;101081.44;;;24.25;45.44
20942;BME280;10630;53.734;10.282;2022-10-16T14:22:38;101163.09;;;24.87;45.81
20942;BME280;10630;53.734;10.282;2022-10-16T14:30:55;101071.25;;;24.77;45.15
20942;BME280;10630;53.734;10.282;2022-10-16T14:33:36;101188.25;;;25.66;44.29
20942;BME280;10630;53.734;10.282;2022-10-16T14:38:59;101176.09;;;25.02;44.80
20942;BME280;10630;53.734;10.282;2022-10-16T14:41:30;101090.09;;;24.61;45.52
20942;BME280;10630;53.734;10.282;2022-10-16T14:44:03;100941.25;;;23.73;45.43
20942;BME280;10630;53.734;10.282;2022-10-16T14:46:40;101092.13;;;24.32;45.37
20942;BME280;10630;53.734;10.282;2022-10-16T14:49:17;101184.34;;;24.68;45.74
20942;BME280;10630;53.734;10.282;2022-10-16T14:51:47;101193.09;;;24.92;45.40
20942;BME280;10630;53.734;10.282;2022-10-16T14:54:16;101198.59;;;25.19;45.34
20942;BME280;10630;53.734;10.282;2022-10-16T14:56:53;101188.88;;;25.23;45.68
20942;BME280;10630;53.734;10.282;2022-10-16T15:01:51;101208.06;;;25.56;45.03
20942;BME280;10630;53.734;10.282;2022-10-16T15:04:19;101211.38;;;25.85;44.94
20942;BME280;10630;53.734;10.282;2022-10-16T15:06:45;101185.34;;;25.45;44.97
20942;BME280;10630;53.734;10.282;2022-10-16T15:09:13;101155.56;;;25.16;44.79
20942;BME280;10630;53.734;10.282;2022-10-16T15:11:41;101215.47;;;25.60;45.58
20942;BME280;10630;53.734;10.282;2022-10-16T15:14:12;101209.41;;;25.09;45.61
20942;BME280;10630;53.734;10.282;2022-10-16T15:16:42;101219.03;;;25.39;45.47
20942;BME280;10630;53.734;10.282;2022-10-16T15:19:12;101195.19;;;25.29;44.61